Time;durP1;ratioP1;P1;durP2;ratioP2;P2;SDS_P1;SDS_P2;PMS_P1;PMS_P2;Temp;Humidity;BMP_temperature;BMP_pressure;BME280_temperature;BME280_humidity;BME280_pressure;Samples;Min_cycle;Max_cycle;Signal;HPM_P1;HPM_P2
2023/08/01 00:00:27;;;;;;;2.00;1.10;;;15.80;99.90;;;;;;4956229;28;20043;-84
2023/08/01 00:02:54;;;;;;;1.55;1.02;;;15.90;99.90;;;;;;4927349;29;20270;-82
2023/08/01 00:05:21;;;;;;;2.53;1.17;;;15.80;99.90;;;;;;4943590;28;20356;-84
2023/08/01 00:07:48;;;;;;;1.60;0.93;;;15.80;99.90;;;;;;4946633;28;20061;-82
2023/08/01 00:10:16;;;;;;;2.92;1.40;;;15.90;99.90;;;;;;4955179;28;20039;-85
2023/08/01 00:12:43;;;;;;;3.65;1.30;;;15.90;99.90;;;;;;4945181;28;20103;-83
2023/08/01 00:15:10;;;;;;;2.10;0.98;;;15.90;99.90;;;;;;4954717;28;20039;-80
2023/08/01 00:17:37;;;;;;;3.80;1.25;;;15.90;99.90;;;;;;4950786;28;20047;-85
2023/08/01 00:20:05;;;;;;;2.28;1.23;;;15.90;99.90;;;;;;4949856;28;20523;-84
2023/08/01 00:22:32;;;;;;;1.58;1.08;;;15.90;99.90;;;;;;4942585;28;20074;-86
2023/08/01 00:24:59;;;;;;;1.90;1.08;;;15.90;99.90;;;;;;4926142;29;20058;-85
2023/08/01 00:27:26;;;;;;;1.58;0.98;;;15.90;99.90;;;;;;4926790;28;20674;-86
2023/08/01 00:29:53;;;;;;;2.95;1.30;;;15.80;99.90;;;;;;4935760;28;20058;-87
2023/08/01 00:32:20;;;;;;;2.05;1.05;;;15.70;99.90;;;;;;4941413;28;20102;-85
2023/08/01 00:34:46;;;;;;;2.50;0.82;;;15.80;99.90;;;;;;4925283;29;20457;-84
2023/08/01 00:37:13;;;;;;;2.90;1.23;;;15.80;99.90;;;;;;4944103;28;20054;-82
2023/08/01 00:39:40;;;;;;;2.00;1.27;;;15.70;99.90;;;;;;4946682;28;20055;-86
2023/08/01 00:42:07;;;;;;;2.03;0.95;;;15.80;99.90;;;;;;4928316;28;20051;-83
2023/08/01 00:44:33;;;;;;;3.05;1.13;;;15.80;99.90;;;;;;4950979;28;20039;-84
2023/08/01 00:47:00;;;;;;;2.58;0.95;;;15.80;99.90;;;;;;4935218;28;20110;-84
2023/08/01 00:49:27;;;;;;;3.35;1.35;;;15.80;99.90;;;;;;4949061;28;20135;-84
2023/08/01 00:51:54;;;;;;;5.80;1.75;;;15.70;99.90;;;;;;4945146;28;20085;-86
2023/08/01 00:54:21;;;;;;;4.18;1.40;;;15.70;99.90;;;;;;4925582;28;20047;-84
2023/08/01 00:56:48;;;;;;;3.95;1.40;;;15.60;99.90;;;;;;4919191;28;20400;-80
2023/08/01 00:59:15;;;;;;;4.25;1.60;;;15.60;99.90;;;;;;4935376;28;20047;-81
2023/08/01 01:01:42;;;;;;;5.25;1.92;;;15.60;99.90;;;;;;4950638;28;20150;-80
2023/08/01 01:04:09;;;;;;;4.38;1.50;;;15.50;99.90;;;;;;4915075;28;20674;-80
2023/08/01 01:06:59;;;;;;;5.28;2.13;;;15.60;99.90;;;;;;4914048;28;20047;-82
2023/08/01 01:09:31;;;;;;;4.68;1.75;;;15.60;99.90;;;;;;4901792;28;20382;-80
2023/08/01 01:11:59;;;;;;;6.82;2.33;;;15.50;99.90;;;;;;4949049;28;20063;-80
2023/08/01 01:14:27;;;;;;;7.60;2.22;;;15.50;99.90;;;;;;4922868;28;20043;-81
2023/08/01 01:16:55;;;;;;;4.30;1.90;;;15.40;99.90;;;;;;4948050;28;20600;-82
2023/08/01 01:19:22;;;;;;;8.27;1.92;;;15.40;99.90;;;;;;4928618;28;20046;-82
2023/08/01 01:22:18;;;;;;;9.70;1.40;;;15.40;99.90;;;;;;4913909;28;20054;-84
2023/08/01 01:24:47;;;;;;;2.60;1.30;;;15.40;99.90;;;;;;4946662;28;20440;-81
2023/08/01 01:27:17;;;;;;;6.55;1.50;;;15.40;99.90;;;;;;4915520;28;20042;-81
2023/08/01 01:29:44;;;;;;;2.30;1.30;;;15.40;99.90;;;;;;4929633;28;20136;-80
2023/08/01 01:32:12;;;;;;;1.80;1.45;;;15.40;99.90;;;;;;4915515;28;20042;-80
2023/08/01 01:34:38;;;;;;;2.88;1.48;;;15.50;99.90;;;;;;4927324;28;20054;-80
2023/08/01 01:37:05;;;;;;;2.83;1.75;;;15.50;99.90;;;;;;4916756;28;20047;-80
2023/08/01 01:39:32;;;;;;;4.47;1.95;;;15.60;99.90;;;;;;4912746;28;20642;-82
2023/08/01 01:41:59;;;;;;;3.67;1.90;;;15.70;99.90;;;;;;4941942;28;20063;-81
2023/08/01 01:44:26;;;;;;;2.75;1.60;;;15.80;99.90;;;;;;4941585;28;20501;-81
2023/08/01 01:46:53;;;;;;;4.50;1.98;;;15.70;99.90;;;;;;4936758;28;20979;-83
2023/08/01 01:49:19;;;;;;;3.83;2.20;;;15.70;99.90;;;;;;4919147;28;20097;-81
2023/08/01 01:51:46;;;;;;;3.45;1.77;;;15.80;99.90;;;;;;4924312;28;20042;-81
2023/08/01 01:54:13;;;;;;;5.57;2.17;;;15.80;99.90;;;;;;4919661;28;20512;-78
2023/08/01 01:56:40;;;;;;;3.55;2.10;;;15.80;99.90;;;;;;4933982;28;20043;-80
2023/08/01 01:59:08;;;;;;;7.80;2.35;;;15.80;99.90;;;;;;4932052;28;20350;-80
2023/08/01 02:01:34;;;;;;;3.13;2.05;;;15.90;99.90;;;;;;4910914;28;20069;-80
2023/08/01 02:04:02;;;;;;;2.30;2.10;;;15.80;99.90;;;;;;4955282;28;20127;-79
2023/08/01 02:06:29;;;;;;;5.57;2.42;;;15.80;99.90;;;;;;4958486;28;20305;-79
2023/08/01 02:08:56;;;;;;;9.73;2.08;;;15.80;99.90;;;;;;4948626;28;20082;-77
2023/08/01 02:11:24;;;;;;;3.45;1.40;;;15.80;99.90;;;;;;4938474;28;21216;-79
2023/08/01 02:13:51;;;;;;;1.63;1.52;;;15.70;99.90;;;;;;4937491;28;20242;-80
2023/08/01 02:16:18;;;;;;;1.45;1.35;;;15.50;99.90;;;;;;4953879;28;20046;-77
2023/08/01 02:18:45;;;;;;;1.10;1.00;;;15.30;99.90;;;;;;4906837;28;20042;-78
2023/08/01 02:21:12;;;;;;;1.33;1.23;;;15.20;99.90;;;;;;4933500;28;20307;-85
2023/08/01 02:23:39;;;;;;;1.55;1.45;;;15.20;99.90;;;;;;4911017;28;20340;-85
2023/08/01 02:26:08;;;;;;;1.73;1.63;;;15.20;99.90;;;;;;4920419;28;20149;-86
2023/08/01 02:28:34;;;;;;;2.13;1.95;;;15.20;99.90;;;;;;4924227;28;20050;-84
2023/08/01 02:31:01;;;;;;;1.77;1.67;;;15.10;99.90;;;;;;4935498;28;20050;-85
2023/08/01 02:33:28;;;;;;;2.20;1.92;;;15.10;99.90;;;;;;4946104;28;20031;-85
2023/08/01 02:35:55;;;;;;;1.83;1.73;;;15.10;99.90;;;;;;4946319;28;20488;-86
2023/08/01 02:38:22;;;;;;;3.03;2.33;;;15.10;99.90;;;;;;4933655;28;20050;-84
2023/08/01 02:40:49;;;;;;;2.25;2.05;;;15.20;99.90;;;;;;4915953;28;20537;-85
2023/08/01 02:43:17;;;;;;;3.65;2.70;;;15.20;99.90;;;;;;4940185;28;20062;-85
2023/08/01 02:45:43;;;;;;;2.60;2.40;;;15.20;99.90;;;;;;4954564;28;20061;-86
2023/08/01 02:48:11;;;;;;;5.13;2.22;;;15.20;99.90;;;;;;4943951;28;20051;-78
2023/08/01 02:50:38;;;;;;;2.33;2.00;;;15.20;99.90;;;;;;4921476;28;20051;-79
2023/08/01 02:53:05;;;;;;;3.90;2.90;;;15.20;99.90;;;;;;4925675;28;20068;-82
2023/08/01 02:55:32;;;;;;;2.88;1.77;;;15.20;99.90;;;;;;4921629;28;20109;-80
2023/08/01 02:57:58;;;;;;;2.10;1.90;;;15.10;99.90;;;;;;4952748;28;20050;-82
2023/08/01 03:00:25;;;;;;;2.80;2.28;;;15.00;99.90;;;;;;4936965;28;20606;-82
2023/08/01 03:02:53;;;;;;;4.53;2.35;;;15.00;99.90;;;;;;4933186;28;20273;-81
2023/08/01 03:05:20;;;;;;;2.55;1.90;;;15.00;99.90;;;;;;4919368;28;20364;-81
2023/08/01 03:07:47;;;;;;;2.05;1.83;;;15.10;99.90;;;;;;4921200;28;20085;-83
2023/08/01 03:10:13;;;;;;;2.90;2.17;;;15.10;99.90;;;;;;4933962;28;20493;-81
2023/08/01 03:13:00;;;;;;;4.05;2.05;;;15.10;99.90;;;;;;4940494;28;20043;-81
2023/08/01 03:15:28;;;;;;;2.10;2.00;;;15.00;99.90;;;;;;4940398;28;20130;-82
2023/08/01 03:17:56;;;;;;;2.30;2.20;;;15.00;99.90;;;;;;4937348;28;20330;-83
2023/08/01 03:20:22;;;;;;;2.20;2.10;;;15.10;99.90;;;;;;4918422;28;20294;-82
2023/08/01 03:22:49;;;;;;;2.40;2.20;;;15.00;99.90;;;;;;4922498;28;21208;-81
2023/08/01 03:25:17;;;;;;;3.45;2.40;;;15.00;99.90;;;;;;4940686;28;20043;-83
2023/08/01 03:27:43;;;;;;;2.30;2.10;;;15.00;99.90;;;;;;4951802;28;20074;-83
2023/08/01 03:30:10;;;;;;;2.20;2.10;;;15.00;99.90;;;;;;4940909;28;20094;-82
2023/08/01 03:32:37;;;;;;;2.33;2.13;;;15.00;99.90;;;;;;4917144;28;20714;-81
2023/08/01 03:35:05;;;;;;;2.50;2.30;;;15.00;99.90;;;;;;4955707;28;20110;-79
2023/08/01 03:37:32;;;;;;;3.40;2.70;;;14.90;99.90;;;;;;4918368;28;20043;-79
2023/08/01 03:39:59;;;;;;;2.58;2.33;;;14.90;99.90;;;;;;4938968;28;20047;-81
2023/08/01 03:42:26;;;;;;;2.88;2.65;;;14.90;99.90;;;;;;4937966;28;20244;-82
2023/08/01 03:44:53;;;;;;;4.32;3.10;;;14.90;99.90;;;;;;4934108;28;20061;-81
2023/08/01 03:47:20;;;;;;;4.85;3.28;;;14.90;99.90;;;;;;4915672;28;20629;-83
2023/08/01 03:49:47;;;;;;;5.63;2.80;;;15.00;99.90;;;;;;4922006;28;20688;-82
2023/08/01 03:52:14;;;;;;;5.53;3.50;;;14.90;99.90;;;;;;4950991;28;20050;-80
2023/08/01 03:54:41;;;;;;;3.35;2.40;;;14.80;99.90;;;;;;4928892;28;20047;-79
2023/08/01 03:57:08;;;;;;;3.85;2.35;;;14.80;99.90;;;;;;4937945;28;20090;-80
2023/08/01 03:59:35;;;;;;;3.90;1.95;;;14.80;99.90;;;;;;4947402;28;20047;-82
2023/08/01 04:02:03;;;;;;;2.70;2.20;;;14.80;99.90;;;;;;4936981;28;20052;-81
2023/08/01 04:04:31;;;;;;;3.20;1.92;;;14.80;99.90;;;;;;4935696;28;20207;-80
2023/08/01 04:06:58;;;;;;;5.47;2.47;;;14.80;99.90;;;;;;4915122;28;20413;-81
2023/08/01 04:09:25;;;;;;;4.50;3.20;;;14.80;99.90;;;;;;4911135;28;20426;-79
2023/08/01 04:11:52;;;;;;;7.78;3.40;;;14.70;99.90;;;;;;4941274;28;20237;-79
2023/08/01 04:14:18;;;;;;;6.63;3.35;;;14.80;99.90;;;;;;4934907;28;20042;-78
2023/08/01 04:16:45;;;;;;;3.25;2.50;;;14.80;99.90;;;;;;4928138;28;20485;-79
2023/08/01 04:19:13;;;;;;;3.20;2.53;;;14.70;99.90;;;;;;4921556;28;20293;-79
2023/08/01 04:21:39;;;;;;;4.95;3.42;;;14.60;99.90;;;;;;4939296;28;20085;-80
2023/08/01 04:24:06;;;;;;;6.57;2.90;;;14.70;99.90;;;;;;4911947;28;20047;-79
2023/08/01 04:26:33;;;;;;;4.13;2.85;;;14.60;99.90;;;;;;4927580;28;20187;-81
2023/08/01 04:29:00;;;;;;;5.10;2.97;;;14.60;99.90;;;;;;4933527;28;20047;-83
2023/08/01 04:31:27;;;;;;;3.72;3.00;;;14.60;99.90;;;;;;4947142;28;20231;-81
2023/08/01 04:33:54;;;;;;;5.47;2.83;;;14.50;99.90;;;;;;4931346;28;20426;-79
2023/08/01 04:36:21;;;;;;;4.82;3.40;;;14.50;99.90;;;;;;4917678;28;20102;-78
2023/08/01 04:38:48;;;;;;;11.43;4.53;;;14.60;99.90;;;;;;4928182;28;20123;-79
2023/08/01 04:41:15;;;;;;;8.40;5.18;;;14.60;99.90;;;;;;4930273;28;20045;-80
2023/08/01 04:43:42;;;;;;;8.50;4.85;;;14.50;99.90;;;;;;4912906;28;20269;-80
2023/08/01 04:46:09;;;;;;;6.00;3.63;;;14.50;99.90;;;;;;4923482;28;20058;-80
2023/08/01 04:48:39;;;;;;;8.43;4.10;;;14.50;99.90;;;;;;4933151;28;20530;-80
2023/08/01 04:51:06;;;;;;;5.13;3.35;;;14.50;99.90;;;;;;4936087;28;20039;-79
2023/08/01 04:53:33;;;;;;;5.80;3.22;;;14.60;99.90;;;;;;4944893;28;20046;-79
2023/08/01 04:56:00;;;;;;;6.50;3.92;;;14.60;99.90;;;;;;4929218;28;20050;-80
2023/08/01 04:58:27;;;;;;;7.50;3.72;;;14.60;99.90;;;;;;4935238;28;20038;-80
2023/08/01 05:00:53;;;;;;;7.40;4.10;;;14.60;99.90;;;;;;4912008;28;20042;-80
2023/08/01 05:03:20;;;;;;;10.48;4.82;;;14.60;99.90;;;;;;4928129;28;20043;-81
2023/08/01 05:05:47;;;;;;;15.10;7.60;;;14.60;99.90;;;;;;4929998;28;20155;-80
2023/08/01 05:08:14;;;;;;;22.70;9.82;;;14.50;99.90;;;;;;4913999;28;20057;-80
2023/08/01 05:10:41;;;;;;;29.50;12.77;;;14.50;99.90;;;;;;4931092;28;20252;-80
2023/08/01 05:13:08;;;;;;;36.03;15.70;;;14.50;99.90;;;;;;4931998;28;20043;-77
2023/08/01 05:15:34;;;;;;;38.17;15.55;;;14.40;99.90;;;;;;4928638;28;20711;-82
2023/08/01 05:18:01;;;;;;;38.03;15.40;;;14.40;99.90;;;;;;4934196;28;20047;-84
2023/08/01 05:20:30;;;;;;;35.15;15.70;;;14.50;99.90;;;;;;4958079;28;20098;-85
2023/08/01 05:22:58;;;;;;;38.55;17.58;;;14.40;99.90;;;;;;4944911;28;20059;-83
2023/08/01 05:25:25;;;;;;;46.72;18.95;;;14.40;99.90;;;;;;4922686;28;20047;-82
2023/08/01 05:27:52;;;;;;;47.38;20.08;;;14.40;99.90;;;;;;4937146;28;20054;-87
2023/08/01 05:30:19;;;;;;;56.30;23.02;;;14.40;99.90;;;;;;4921634;28;20047;-85
2023/08/01 05:32:46;;;;;;;60.70;22.13;;;14.40;99.90;;;;;;4924792;28;20409;-84
2023/08/01 05:35:13;;;;;;;42.28;19.05;;;14.50;99.90;;;;;;4948703;28;20567;-86
2023/08/01 05:37:40;;;;;;;48.97;19.35;;;14.50;99.90;;;;;;4941108;28;20064;-87
2023/08/01 05:40:08;;;;;;;52.20;20.05;;;14.50;99.90;;;;;;4948929;28;20054;-85
2023/08/01 05:42:35;;;;;;;40.67;17.10;;;14.60;99.90;;;;;;4941939;28;20047;-83
2023/08/01 05:45:03;;;;;;;39.55;16.92;;;14.60;99.90;;;;;;4922073;28;20050;-86
2023/08/01 05:47:31;;;;;;;37.90;17.45;;;14.60;99.90;;;;;;4935615;28;20725;-84
2023/08/01 05:49:58;;;;;;;37.55;19.15;;;14.50;99.90;;;;;;4900039;28;20050;-82
2023/08/01 05:52:25;;;;;;;41.17;21.25;;;14.40;99.90;;;;;;4929416;28;20706;-84
2023/08/01 05:54:51;;;;;;;31.13;17.30;;;14.50;99.90;;;;;;4917912;28;20273;-79
2023/08/01 05:57:19;;;;;;;33.35;17.60;;;14.50;99.90;;;;;;4937311;28;20107;-82
2023/08/01 05:59:45;;;;;;;42.17;19.08;;;14.50;99.90;;;;;;4931632;28;20051;-79
2023/08/01 06:02:12;;;;;;;50.75;22.48;;;14.60;99.90;;;;;;4949880;28;20127;-82
2023/08/01 06:04:39;;;;;;;47.33;22.98;;;14.60;99.90;;;;;;4934147;28;20043;-77
2023/08/01 06:07:06;;;;;;;54.55;26.65;;;14.50;99.90;;;;;;4952192;28;20043;-83
2023/08/01 06:09:33;;;;;;;63.13;29.88;;;14.60;99.90;;;;;;4934417;28;20437;-79
2023/08/01 06:12:00;;;;;;;65.25;31.17;;;14.60;99.90;;;;;;4910271;28;20070;-78
2023/08/01 06:14:27;;;;;;;57.97;28.40;;;14.70;99.90;;;;;;4938512;28;20051;-85
2023/08/01 06:16:54;;;;;;;59.33;27.70;;;14.50;99.90;;;;;;4926538;28;20058;-84
2023/08/01 06:19:21;;;;;;;57.63;28.35;;;14.60;99.90;;;;;;4937183;28;20047;-80
2023/08/01 06:21:48;;;;;;;70.10;30.73;;;14.60;99.90;;;;;;4931568;28;20038;-81
2023/08/01 06:24:14;;;;;;;61.70;27.75;;;14.60;99.90;;;;;;4932596;28;20389;-79
2023/08/01 06:26:41;;;;;;;48.00;21.45;;;14.60;99.90;;;;;;4922341;28;20042;-77
2023/08/01 06:29:09;;;;;;;30.15;13.75;;;14.60;99.90;;;;;;4916948;28;20071;-78
2023/08/01 06:31:36;;;;;;;19.35;9.85;;;14.50;99.90;;;;;;4925612;28;20047;-82
2023/08/01 06:34:03;;;;;;;18.50;9.52;;;14.30;99.90;;;;;;4937377;28;20157;-82
2023/08/01 06:36:32;;;;;;;21.52;10.95;;;14.10;99.90;;;;;;4955381;28;20039;-83
2023/08/01 06:38:59;;;;;;;24.95;12.00;;;14.00;99.90;;;;;;4914504;28;20373;-80
2023/08/01 06:41:25;;;;;;;30.88;14.50;;;14.00;99.90;;;;;;4915252;28;20047;-82
2023/08/01 06:43:52;;;;;;;30.83;15.15;;;14.00;99.90;;;;;;4924546;28;20130;-82
2023/08/01 06:46:19;;;;;;;37.17;16.70;;;14.10;99.90;;;;;;4949643;28;20047;-81
2023/08/01 06:48:46;;;;;;;26.98;15.45;;;14.10;99.90;;;;;;4935004;28;20507;-84
2023/08/01 06:51:13;;;;;;;35.53;16.42;;;14.10;99.90;;;;;;4915744;28;20443;-81
2023/08/01 06:53:40;;;;;;;30.65;16.38;;;14.10;99.90;;;;;;4955552;28;20223;-83
2023/08/01 06:56:07;;;;;;;35.45;17.65;;;14.10;99.90;;;;;;4914966;28;20043;-85
2023/08/01 06:58:33;;;;;;;35.42;16.88;;;14.10;99.90;;;;;;4941308;28;20047;-87
2023/08/01 07:01:00;;;;;;;26.83;13.73;;;14.20;99.90;;;;;;4931580;28;20428;-81
2023/08/01 07:03:27;;;;;;;27.85;12.43;;;14.20;99.90;;;;;;4933261;28;20046;-84
2023/08/01 07:05:54;;;;;;;25.73;14.98;;;14.10;99.90;;;;;;4919554;28;20050;-86
2023/08/01 07:08:21;;;;;;;48.35;23.15;;;14.20;99.90;;;;;;4942271;28;20175;-87
2023/08/01 07:10:51;;;;;;;58.45;28.50;;;14.20;99.90;;;;;;4933084;28;20039;-85
2023/08/01 07:13:19;;;;;;;65.32;30.13;;;14.30;99.90;;;;;;4950736;28;20440;-88
2023/08/01 07:15:46;;;;;;;63.97;28.60;;;14.40;99.90;;;;;;4925136;28;20050;-87
2023/08/01 07:18:13;;;;;;;53.63;26.77;;;14.40;99.90;;;;;;4936942;28;20054;-86
2023/08/01 07:20:40;;;;;;;62.15;31.95;;;14.30;99.90;;;;;;4941358;28;20043;-83
2023/08/01 07:23:07;;;;;;;61.85;30.02;;;14.50;99.90;;;;;;4913976;28;20053;-84
2023/08/01 07:25:34;;;;;;;66.85;32.72;;;14.50;99.90;;;;;;4922309;28;20248;-83
2023/08/01 07:28:02;;;;;;;66.22;32.85;;;14.50;99.90;;;;;;4937071;28;20081;-90
2023/08/01 07:30:29;;;;;;;65.82;32.80;;;14.50;99.90;;;;;;4942158;28;20270;-87
2023/08/01 07:32:56;;;;;;;65.32;33.50;;;14.50;99.90;;;;;;4920385;28;20514;-85
2023/08/01 07:35:23;;;;;;;66.05;32.65;;;14.60;99.90;;;;;;4945667;28;20552;-90
2023/08/01 07:37:50;;;;;;;61.58;33.05;;;14.60;99.90;;;;;;4935174;28;20054;-83
2023/08/01 07:40:17;;;;;;;71.78;35.65;;;14.50;99.90;;;;;;4939084;28;20134;-84
2023/08/01 07:42:43;;;;;;;62.85;35.92;;;14.60;99.90;;;;;;4941332;28;20057;-86
2023/08/01 07:45:11;;;;;;;66.00;35.50;;;14.70;99.90;;;;;;4927353;28;20049;-85
2023/08/01 07:47:37;;;;;;;63.10;35.00;;;14.80;99.90;;;;;;4922768;28;20071;-83
2023/08/01 07:50:05;;;;;;;63.72;32.53;;;14.90;99.90;;;;;;4932426;28;20128;-84
2023/08/01 07:52:31;;;;;;;60.47;34.55;;;14.90;99.90;;;;;;4924575;28;20050;-85
2023/08/01 07:54:58;;;;;;;57.22;33.05;;;15.00;99.90;;;;;;4920491;28;20053;-86
2023/08/01 07:57:25;;;;;;;57.45;34.33;;;15.00;99.90;;;;;;4931941;28;20623;-87
2023/08/01 07:59:52;;;;;;;54.67;32.17;;;15.10;99.90;;;;;;4932303;28;20331;-88
2023/08/01 08:02:19;;;;;;;63.17;34.22;;;15.10;99.90;;;;;;4934108;28;20031;-85
2023/08/01 08:04:46;;;;;;;67.18;33.88;;;15.00;99.90;;;;;;4935229;28;20189;-84
2023/08/01 08:07:13;;;;;;;70.15;36.55;;;15.00;99.90;;;;;;4914429;28;20480;-86
2023/08/01 08:09:40;;;;;;;61.90;34.50;;;14.90;99.90;;;;;;4942680;28;20496;-85
2023/08/01 08:12:07;;;;;;;63.88;35.15;;;15.10;99.90;;;;;;4931386;28;20043;-85
2023/08/01 08:14:34;;;;;;;60.92;32.90;;;15.30;99.90;;;;;;4957981;28;20050;-84
2023/08/01 08:17:01;;;;;;;64.72;34.58;;;15.30;99.90;;;;;;4925112;28;20046;-85
2023/08/01 08:19:28;;;;;;;64.80;33.38;;;15.30;99.90;;;;;;4939754;28;20043;-81
2023/08/01 08:21:55;;;;;;;58.83;31.92;;;15.20;99.90;;;;;;4921278;28;20098;-85
2023/08/01 08:24:22;;;;;;;51.67;27.95;;;15.20;99.90;;;;;;4939680;28;20098;-84
2023/08/01 08:26:49;;;;;;;50.60;27.67;;;15.40;99.90;;;;;;4939774;28;20504;-88
2023/08/01 08:29:16;;;;;;;51.20;28.15;;;15.30;99.90;;;;;;4922555;28;20053;-83
2023/08/01 08:31:43;;;;;;;46.72;28.52;;;15.50;99.90;;;;;;4946222;28;20046;-83
2023/08/01 08:34:10;;;;;;;49.63;27.15;;;15.70;99.90;;;;;;4935821;28;20120;-86
2023/08/01 08:36:36;;;;;;;41.63;27.10;;;15.80;99.90;;;;;;4915829;28;20070;-80
2023/08/01 08:39:04;;;;;;;46.60;25.15;;;15.90;99.90;;;;;;4914965;28;20074;-85
2023/08/01 08:41:38;;;;;;;43.53;26.52;;;15.90;99.90;;;;;;4928674;28;20058;-83
2023/08/01 08:44:08;;;;;;;45.75;23.85;;;16.00;99.90;;;;;;4935060;28;20057;-85
2023/08/01 08:46:43;;;;;;;42.75;26.00;;;16.00;99.90;;;;;;4931761;28;20240;-85
2023/08/01 08:49:11;;;;;;;42.25;24.08;;;15.90;99.90;;;;;;4919784;28;20129;-85
2023/08/01 08:51:39;;;;;;;39.65;24.95;;;15.70;99.90;;;;;;4952245;28;20050;-84
2023/08/01 08:54:06;;;;;;;34.38;21.90;;;15.60;99.90;;;;;;4940390;28;20046;-88
2023/08/01 08:56:34;;;;;;;38.85;22.85;;;15.40;99.90;;;;;;4916860;28;20058;-85
2023/08/01 08:59:02;;;;;;;33.15;18.67;;;15.70;99.90;;;;;;4930223;28;20053;-83
2023/08/01 09:01:31;;;;;;;42.53;24.33;;;15.70;99.90;;;;;;4939283;28;20188;-85
2023/08/01 09:03:58;;;;;;;30.50;20.45;;;15.50;99.90;;;;;;4931769;28;20055;-89
2023/08/01 09:06:34;;;;;;;38.92;22.60;;;15.20;99.90;;;;;;4926074;28;20137;-88
2023/08/01 09:09:12;;;;;;;37.83;24.67;;;15.00;99.90;;;;;;4931956;28;20505;-84
2023/08/01 09:11:51;;;;;;;38.53;21.70;;;15.00;99.90;;;;;;4933701;28;20073;-84
2023/08/01 09:14:19;;;;;;;42.15;25.73;;;15.10;99.90;;;;;;4914466;29;20047;-81
2023/08/01 09:16:47;;;;;;;43.88;25.60;;;15.40;99.90;;;;;;4940452;28;20126;-81
2023/08/01 09:19:32;;;;;;;46.33;27.33;;;15.50;99.90;;;;;;4918858;28;20106;-79
2023/08/01 09:21:59;;;;;;;39.60;22.30;;;15.90;99.90;;;;;;4947997;28;20074;-85
2023/08/01 09:24:26;;;;;;;42.83;26.17;;;15.70;99.90;;;;;;4924272;28;20050;-83
2023/08/01 09:27:04;;;;;;;46.42;26.38;;;15.60;99.90;;;;;;4937864;28;20043;-86
2023/08/01 09:29:32;;;;;;;45.05;25.52;;;15.70;99.90;;;;;;4931843;28;20113;-86
2023/08/01 09:32:00;;;;;;;46.08;26.20;;;15.70;99.90;;;;;;4917637;28;20529;-84
2023/08/01 09:34:27;;;;;;;46.20;29.20;;;15.70;99.90;;;;;;4902691;28;20045;-84
2023/08/01 09:36:59;;;;;;;42.10;25.50;;;15.90;99.90;;;;;;4937346;28;20068;-83
2023/08/01 09:39:26;;;;;;;40.40;25.67;;;16.10;99.90;;;;;;4936428;28;20042;-82
2023/08/01 09:42:00;;;;;;;37.15;24.67;;;16.30;99.90;;;;;;4933816;28;20043;-78
2023/08/01 09:44:29;;;;;;;35.33;22.95;;;16.50;99.90;;;;;;4948270;28;20101;-78
2023/08/01 09:47:04;;;;;;;37.63;21.63;;;16.90;99.90;;;;;;4915464;28;20050;-80
2023/08/01 09:49:31;;;;;;;40.05;25.15;;;16.90;99.90;;;;;;4938812;28;20090;-80
2023/08/01 09:52:05;;;;;;;30.00;21.40;;;16.70;99.90;;;;;;4944327;28;20067;-83
2023/08/01 09:54:32;;;;;;;29.58;20.52;;;16.70;99.90;;;;;;4933165;28;20078;-80
2023/08/01 09:57:01;;;;;;;28.85;21.63;;;16.60;99.90;;;;;;4940599;28;20077;-83
2023/08/01 09:59:30;;;;;;;31.75;21.10;;;16.50;99.90;;;;;;4921829;28;20795;-84
2023/08/01 10:01:57;;;;;;;28.52;20.38;;;16.40;99.90;;;;;;4945778;28;20365;-78
2023/08/01 10:04:37;;;;;;;24.33;19.08;;;16.30;99.90;;;;;;4924827;28;20070;-86
2023/08/01 10:07:11;;;;;;;22.67;17.40;;;16.10;99.90;;;;;;4951861;28;20296;-86
2023/08/01 10:09:39;;;;;;;25.63;17.83;;;15.90;99.90;;;;;;4930658;28;20109;-83
2023/08/01 10:12:07;;;;;;;24.63;17.55;;;16.00;99.90;;;;;;4926475;28;20054;-85
2023/08/01 10:14:36;;;;;;;22.65;16.05;;;16.20;99.90;;;;;;4919544;28;20043;-87
2023/08/01 10:17:03;;;;;;;23.90;18.38;;;16.70;99.90;;;;;;4912237;28;20036;-82
2023/08/01 10:19:33;;;;;;;22.95;20.48;;;17.20;99.90;;;;;;4953474;28;20135;-83
2023/08/01 10:22:00;;;;;;;24.63;21.40;;;17.20;99.90;;;;;;4946908;28;20047;-84
2023/08/01 10:24:29;;;;;;;21.27;19.02;;;17.00;99.90;;;;;;4927246;28;20138;-83
2023/08/01 10:26:55;;;;;;;20.48;16.42;;;16.60;99.90;;;;;;4928584;28;20050;-86
2023/08/01 10:29:35;;;;;;;22.27;17.10;;;16.30;99.90;;;;;;4922825;28;20802;-84
2023/08/01 10:32:02;;;;;;;21.00;17.70;;;16.40;99.90;;;;;;4900226;29;20147;-88
2023/08/01 10:34:28;;;;;;;22.30;16.73;;;16.50;99.90;;;;;;4935931;28;20043;-86
2023/08/01 10:36:57;;;;;;;29.33;18.70;;;16.70;99.90;;;;;;4930377;28;20051;-86
2023/08/01 10:39:26;;;;;;;26.25;18.38;;;16.80;99.90;;;;;;4944417;28;20050;-85
2023/08/01 10:42:05;;;;;;;27.25;18.85;;;17.00;99.90;;;;;;4933478;28;20756;-85
2023/08/01 10:44:34;;;;;;;27.80;21.17;;;17.30;99.90;;;;;;4944232;28;20055;-84
2023/08/01 10:47:03;;;;;;;22.52;19.23;;;17.30;99.90;;;;;;4938417;28;20054;-86
2023/08/01 10:49:42;;;;;;;25.73;19.55;;;17.30;99.90;;;;;;4931415;28;20055;-84
2023/08/01 10:52:17;;;;;;;25.13;19.85;;;17.40;99.90;;;;;;4952703;28;20440;-86
2023/08/01 10:54:44;;;;;;;;;;;17.50;99.90;;;;;;4932397;28;20123;-85
2023/08/01 10:57:19;;;;;;;21.08;19.20;;;17.90;99.90;;;;;;4923464;28;19966;-83
2023/08/01 10:59:47;;;;;;;23.92;21.73;;;17.90;99.90;;;;;;4921876;28;20249;-84
2023/08/01 11:02:21;;;;;;;23.55;21.65;;;18.00;99.90;;;;;;4920777;29;20142;-88
2023/08/01 11:04:59;;;;;;;25.45;23.05;;;18.30;99.90;;;;;;4927900;29;20070;-89
2023/08/01 11:07:26;;;;;;;23.55;21.55;;;18.40;99.90;;;;;;4946705;28;20070;-86
2023/08/01 11:10:12;;;;;;;24.67;22.67;;;18.80;99.90;;;;;;4943074;28;20102;-88
2023/08/01 11:12:43;;;;;;;26.08;23.92;;;19.30;99.90;;;;;;4948265;28;20145;-86
2023/08/01 11:15:13;;;;;;;26.05;23.95;;;19.30;99.90;;;;;;4947391;28;20053;-87
2023/08/01 11:17:42;;;;;;;25.65;23.95;;;19.00;99.90;;;;;;4945107;28;20043;-88
2023/08/01 11:20:12;;;;;;;26.08;23.98;;;19.00;99.90;;;;;;4961033;28;20135;-85
2023/08/01 11:22:54;;;;;;;26.83;25.05;;;18.70;99.90;;;;;;4964435;28;20043;-88
2023/08/01 11:25:45;;;;;;;24.50;22.80;;;18.50;99.90;;;;;;4932543;28;20668;-85
2023/08/01 11:28:15;;;;;;;26.65;24.88;;;18.90;99.90;;;;;;4943829;28;20164;-85
2023/08/01 11:30:45;;;;;;;28.60;26.55;;;19.10;99.90;;;;;;4924826;28;20047;-88
2023/08/01 11:33:23;;;;;;;27.13;25.30;;;19.30;99.90;;;;;;4942870;28;20129;-86
2023/08/01 11:35:53;;;;;;;25.27;23.55;;;19.30;99.90;;;;;;4962325;28;20121;-88
2023/08/01 11:38:22;;;;;;;24.88;23.27;;;19.20;99.90;;;;;;4938806;28;20057;-89
2023/08/01 11:40:51;;;;;;;23.55;22.05;;;19.40;99.90;;;;;;4941918;28;20101;-87
2023/08/01 11:43:18;;;;;;;26.63;24.90;;;19.00;99.90;;;;;;4955382;28;20591;-88
2023/08/01 11:45:58;;;;;;;23.55;22.15;;;18.80;99.90;;;;;;4930454;28;20047;-85
2023/08/01 11:48:27;;;;;;;26.40;24.60;;;18.80;99.90;;;;;;4942960;28;20046;-87
2023/08/01 11:51:09;;;;;;;26.38;24.50;;;18.70;99.90;;;;;;4951597;28;20124;-88
2023/08/01 11:55:25;;;;;;;26.10;24.40;;;18.60;99.90;;;;;;5047766;27;20402;-75
2023/08/01 11:57:59;;;;;;;24.52;22.55;;;18.20;99.90;;;;;;4984415;28;20600;-76
2023/08/01 12:00:28;;;;;;;21.88;20.17;;;17.60;99.90;;;;;;5041984;28;20132;-76
2023/08/01 12:03:05;;;;;;;21.70;20.13;;;17.30;99.90;;;;;;5033015;28;20106;-75
2023/08/01 12:05:32;;;;;;;20.90;19.35;;;17.10;99.90;;;;;;5043730;28;20048;-76
2023/08/01 12:08:13;;;;;;;20.63;18.83;;;16.90;99.90;;;;;;5044130;28;20045;-75
2023/08/01 12:10:45;;;;;;;20.30;18.30;;;16.80;99.90;;;;;;5039478;28;20045;-75
2023/08/01 12:13:25;;;;;;;15.45;13.95;;;16.90;99.90;;;;;;5030709;28;20544;-75
2023/08/01 12:15:56;;;;;;;16.50;14.82;;;17.00;99.90;;;;;;5043970;28;20278;-75
2023/08/01 12:18:26;;;;;;;15.35;14.15;;;16.90;99.90;;;;;;5047469;28;20052;-76
2023/08/01 12:20:56;;;;;;;16.23;14.65;;;17.00;99.90;;;;;;5044018;28;20135;-76
2023/08/01 12:23:23;;;;;;;16.48;15.00;;;17.00;99.90;;;;;;5030378;28;20152;-76
2023/08/01 12:25:49;;;;;;;18.48;16.70;;;17.10;99.90;;;;;;5042190;28;20041;-75
2023/08/01 12:28:16;;;;;;;19.80;18.25;;;17.00;99.90;;;;;;5044850;28;20124;-75
2023/08/01 12:30:44;;;;;;;18.73;17.08;;;16.90;99.90;;;;;;5044755;28;20814;-77
2023/08/01 12:33:11;;;;;;;17.10;15.90;;;16.90;99.90;;;;;;5041724;28;20113;-76
2023/08/01 12:35:41;;;;;;;13.82;12.77;;;17.10;99.90;;;;;;5044494;28;20760;-76
2023/08/01 12:38:08;;;;;;;18.27;16.98;;;17.50;99.90;;;;;;5044403;28;20044;-75
2023/08/01 12:40:36;;;;;;;17.92;16.60;;;17.40;99.90;;;;;;5042624;28;20044;-76
2023/08/01 12:43:03;;;;;;;17.98;16.52;;;17.20;99.90;;;;;;5034728;28;20047;-76